STV5 KONT-KSMF
Flight info
| Callsign | STV5 |
|---|---|
| Flight time | 1h 2m |
| Altitude | 47000 |
| Route | SNSHN5 EHF NURAY SUUTR4 |
| Aircraft | C750/M-SBDE3FGHRWXY/S |
Departure
| Time | 2026-05-05 02:16 |
|---|---|
| Airport | Ontario International Airport (KONT) |
Arrival
| Time | 2026-05-05 03:18 |
|---|---|
| Airport | Sacramento International Airport (KSMF) |
| Time | Latitude | Longitude | Altitude | Speed | Heading |
|---|---|---|---|---|---|
| 2026-05-05 02:05 | 34.05270 | -117.60309 | 930 ft | 0 kts | 72° |
| 2026-05-05 02:11 | 34.05284 | -117.60296 | 928 ft | 7 kts | 11° |
| 2026-05-05 02:11 | 34.05350 | -117.60285 | 929 ft | 9 kts | 45° |
| 2026-05-05 02:11 | 34.05386 | -117.60215 | 934 ft | 14 kts | 73° |
| 2026-05-05 02:11 | 34.05388 | -117.60052 | 930 ft | 26 kts | 90° |
| 2026-05-05 02:12 | 34.05387 | -117.59835 | 933 ft | 25 kts | 90° |
| 2026-05-05 02:12 | 34.05388 | -117.59430 | 930 ft | 24 kts | 90° |
| 2026-05-05 02:12 | 34.05387 | -117.59231 | 932 ft | 23 kts | 90° |
| 2026-05-05 02:13 | 34.05387 | -117.59035 | 927 ft | 24 kts | 90° |
| 2026-05-05 02:13 | 34.05387 | -117.58832 | 925 ft | 24 kts | 89° |
| 2026-05-05 02:13 | 34.05388 | -117.58635 | 925 ft | 23 kts | 90° |
| 2026-05-05 02:13 | 34.05388 | -117.58439 | 924 ft | 23 kts | 90° |
| 2026-05-05 02:14 | 34.05394 | -117.58301 | 925 ft | 10 kts | 62° |
| 2026-05-05 02:14 | 34.05407 | -117.58285 | 927 ft | 0 kts | 33° |
| 2026-05-05 02:14 | 34.05411 | -117.58282 | 926 ft | 4 kts | 33° |
| 2026-05-05 02:15 | 34.05473 | -117.58283 | 926 ft | 13 kts | 328° |
| 2026-05-05 02:15 | 34.05498 | -117.58333 | 927 ft | 0 kts | 266° |
| 2026-05-05 02:15 | 34.05495 | -117.58384 | 925 ft | 37 kts | 268° |
| 2026-05-05 02:16 | 34.05495 | -117.59202 | 982 ft | 136 kts | 266° |
| 2026-05-05 02:16 | 34.05501 | -117.60451 | 1406 ft | 163 kts | 266° |
| 2026-05-05 02:16 | 34.05528 | -117.61912 | 1987 ft | 185 kts | 271° |
| 2026-05-05 02:16 | 34.05581 | -117.63548 | 2653 ft | 204 kts | 270° |
| 2026-05-05 02:17 | 34.05653 | -117.65336 | 3325 ft | 224 kts | 272° |
| 2026-05-05 02:17 | 34.05735 | -117.67298 | 4017 ft | 242 kts | 272° |
| 2026-05-05 02:17 | 34.05818 | -117.69301 | 4692 ft | 244 kts | 272° |
| 2026-05-05 02:17 | 34.06049 | -117.71375 | 5530 ft | 257 kts | 284° |
| 2026-05-05 02:18 | 34.06577 | -117.73438 | 6732 ft | 258 kts | 286° |
| 2026-05-05 02:18 | 34.07088 | -117.75505 | 8016 ft | 256 kts | 284° |
| 2026-05-05 02:18 | 34.07580 | -117.77595 | 9219 ft | 262 kts | 284° |
| 2026-05-05 02:18 | 34.08466 | -117.79556 | 10169 ft | 274 kts | 306° |
| 2026-05-05 02:19 | 34.09803 | -117.81321 | 10682 ft | 297 kts | 309° |
| 2026-05-05 02:19 | 34.11262 | -117.83242 | 10943 ft | 324 kts | 309° |
| 2026-05-05 02:19 | 34.12702 | -117.85447 | 11217 ft | 341 kts | 302° |
| 2026-05-05 02:19 | 34.14059 | -117.87800 | 12075 ft | 344 kts | 302° |
| 2026-05-05 02:20 | 34.15472 | -117.90176 | 12810 ft | 352 kts | 303° |
| 2026-05-05 02:20 | 34.16919 | -117.92595 | 13592 ft | 359 kts | 302° |
| 2026-05-05 02:20 | 34.18380 | -117.95066 | 14207 ft | 364 kts | 302° |
| 2026-05-05 02:20 | 34.19844 | -117.97567 | 14943 ft | 366 kts | 301° |
| 2026-05-05 02:21 | 34.21320 | -118.00094 | 15690 ft | 370 kts | 301° |
| 2026-05-05 02:21 | 34.22823 | -118.02639 | 16445 ft | 374 kts | 301° |
| 2026-05-05 02:21 | 34.24341 | -118.05209 | 17203 ft | 377 kts | 301° |
| 2026-05-05 02:21 | 34.25871 | -118.07815 | 17988 ft | 382 kts | 301° |
| 2026-05-05 02:22 | 34.27414 | -118.10445 | 18714 ft | 386 kts | 301° |
| 2026-05-05 02:22 | 34.29159 | -118.12949 | 19387 ft | 392 kts | 307° |
| 2026-05-05 02:22 | 34.31016 | -118.15372 | 20179 ft | 393 kts | 307° |
| 2026-05-05 02:22 | 34.32851 | -118.17834 | 20992 ft | 395 kts | 306° |
| 2026-05-05 02:23 | 34.34693 | -118.20326 | 21783 ft | 399 kts | 306° |
| 2026-05-05 02:23 | 34.36558 | -118.22820 | 22581 ft | 402 kts | 306° |
| 2026-05-05 02:23 | 34.38447 | -118.25328 | 23360 ft | 405 kts | 306° |
| 2026-05-05 02:23 | 34.40344 | -118.27864 | 23993 ft | 409 kts | 305° |
| 2026-05-05 02:24 | 34.42254 | -118.30435 | 24590 ft | 412 kts | 304° |
| 2026-05-05 02:24 | 34.44184 | -118.33028 | 25105 ft | 417 kts | 304° |
| 2026-05-05 02:24 | 34.46137 | -118.35640 | 25696 ft | 420 kts | 304° |
| 2026-05-05 02:24 | 34.48108 | -118.38283 | 26239 ft | 425 kts | 304° |
| 2026-05-05 02:25 | 34.50095 | -118.40960 | 26759 ft | 430 kts | 304° |
| 2026-05-05 02:25 | 34.52109 | -118.43665 | 27331 ft | 434 kts | 304° |
| 2026-05-05 02:25 | 34.54317 | -118.46230 | 27831 ft | 448 kts | 311° |
| 2026-05-05 02:25 | 34.56873 | -118.48485 | 28415 ft | 461 kts | 319° |
| 2026-05-05 02:26 | 34.59704 | -118.50416 | 28919 ft | 471 kts | 323° |
| 2026-05-05 02:26 | 34.62594 | -118.52304 | 29451 ft | 475 kts | 322° |
| 2026-05-05 02:26 | 34.65507 | -118.54242 | 29990 ft | 479 kts | 322° |
| 2026-05-05 02:26 | 34.68444 | -118.56199 | 30432 ft | 484 kts | 322° |
| 2026-05-05 02:27 | 34.71379 | -118.58135 | 30850 ft | 489 kts | 322° |
| 2026-05-05 02:27 | 34.74414 | -118.60133 | 31403 ft | 489 kts | 322° |
| 2026-05-05 02:27 | 34.77358 | -118.62082 | 31989 ft | 488 kts | 321° |
| 2026-05-05 02:27 | 34.80341 | -118.64074 | 32541 ft | 489 kts | 321° |
| 2026-05-05 02:28 | 34.83328 | -118.66061 | 33122 ft | 490 kts | 321° |
| 2026-05-05 02:28 | 34.86324 | -118.68044 | 33747 ft | 491 kts | 322° |
| 2026-05-05 02:28 | 34.89322 | -118.70035 | 34299 ft | 491 kts | 322° |
| 2026-05-05 02:28 | 34.91338 | -118.71380 | 34686 ft | 490 kts | 322° |
| 2026-05-05 02:29 | 34.95293 | -118.74022 | 35454 ft | 488 kts | 322° |
| 2026-05-05 02:29 | 34.97268 | -118.75338 | 35837 ft | 488 kts | 322° |
| 2026-05-05 02:29 | 35.00288 | -118.77348 | 36415 ft | 488 kts | 322° |
| 2026-05-05 02:29 | 35.03261 | -118.79332 | 37015 ft | 487 kts | 323° |
| 2026-05-05 02:30 | 35.06187 | -118.81291 | 37618 ft | 485 kts | 323° |
| 2026-05-05 02:30 | 35.09142 | -118.83270 | 38212 ft | 485 kts | 323° |
| 2026-05-05 02:30 | 35.12100 | -118.85249 | 38791 ft | 484 kts | 323° |
| 2026-05-05 02:30 | 35.15047 | -118.87223 | 39305 ft | 482 kts | 324° |
| 2026-05-05 02:31 | 35.17981 | -118.89190 | 39850 ft | 480 kts | 324° |
| 2026-05-05 02:31 | 35.20902 | -118.91152 | 40400 ft | 478 kts | 324° |
| 2026-05-05 02:31 | 35.23813 | -118.93108 | 40981 ft | 476 kts | 324° |
| 2026-05-05 02:31 | 35.26716 | -118.95060 | 41535 ft | 475 kts | 324° |
| 2026-05-05 02:32 | 35.29607 | -118.97004 | 42091 ft | 473 kts | 325° |
| 2026-05-05 02:32 | 35.32490 | -118.98946 | 42621 ft | 472 kts | 325° |
| 2026-05-05 02:32 | 35.35359 | -119.00880 | 43159 ft | 471 kts | 325° |
| 2026-05-05 02:32 | 35.38228 | -119.02815 | 43696 ft | 469 kts | 325° |
| 2026-05-05 02:33 | 35.41080 | -119.04740 | 44228 ft | 468 kts | 325° |
| 2026-05-05 02:33 | 35.43927 | -119.06665 | 44722 ft | 467 kts | 325° |
| 2026-05-05 02:33 | 35.46779 | -119.08593 | 45133 ft | 467 kts | 325° |
| 2026-05-05 02:33 | 35.49678 | -119.10414 | 45483 ft | 471 kts | 330° |
| 2026-05-05 02:34 | 35.52687 | -119.12022 | 45859 ft | 472 kts | 331° |
| 2026-05-05 02:34 | 35.55707 | -119.13598 | 46216 ft | 472 kts | 331° |
| 2026-05-05 02:34 | 35.58717 | -119.15211 | 46543 ft | 471 kts | 330° |
| 2026-05-05 02:34 | 35.61711 | -119.16844 | 46882 ft | 471 kts | 330° |
| 2026-05-05 02:35 | 35.64718 | -119.18470 | 46980 ft | 477 kts | 331° |
| 2026-05-05 02:35 | 35.70891 | -119.21772 | 46988 ft | 490 kts | 331° |
| 2026-05-05 02:36 | 35.77209 | -119.25191 | 46999 ft | 502 kts | 332° |
| 2026-05-05 02:36 | 35.83688 | -119.28681 | 47003 ft | 513 kts | 332° |
| 2026-05-05 02:37 | 35.90275 | -119.32251 | 47009 ft | 521 kts | 332° |
| 2026-05-05 02:37 | 35.96949 | -119.35865 | 47010 ft | 526 kts | 332° |
| 2026-05-05 02:38 | 36.03632 | -119.39496 | 47011 ft | 531 kts | 332° |
| 2026-05-05 02:38 | 36.10457 | -119.43208 | 47012 ft | 533 kts | 332° |
| 2026-05-05 02:39 | 36.17210 | -119.46890 | 47008 ft | 535 kts | 332° |
| 2026-05-05 02:39 | 36.24081 | -119.50642 | 46998 ft | 536 kts | 332° |
| 2026-05-05 02:40 | 36.30866 | -119.54355 | 47008 ft | 537 kts | 332° |
| 2026-05-05 02:40 | 36.37695 | -119.58099 | 47008 ft | 537 kts | 332° |
| 2026-05-05 02:41 | 36.44569 | -119.61876 | 46929 ft | 538 kts | 332° |
| 2026-05-05 02:41 | 36.48009 | -119.63770 | 46161 ft | 541 kts | 332° |
| 2026-05-05 02:41 | 36.51367 | -119.65614 | 45452 ft | 527 kts | 332° |
| 2026-05-05 02:41 | 36.54670 | -119.67430 | 44762 ft | 513 kts | 332° |
| 2026-05-05 02:42 | 36.57895 | -119.69212 | 44078 ft | 500 kts | 332° |
| 2026-05-05 02:42 | 36.60938 | -119.71168 | 43418 ft | 484 kts | 325° |
| 2026-05-05 02:42 | 36.63743 | -119.73382 | 42803 ft | 472 kts | 323° |
| 2026-05-05 02:42 | 36.66472 | -119.75596 | 42190 ft | 464 kts | 323° |
| 2026-05-05 02:43 | 36.69187 | -119.77746 | 41583 ft | 462 kts | 324° |
| 2026-05-05 02:43 | 36.71915 | -119.79865 | 40979 ft | 463 kts | 324° |
| 2026-05-05 02:43 | 36.74690 | -119.82050 | 40361 ft | 469 kts | 323° |
| 2026-05-05 02:43 | 36.77409 | -119.84220 | 39754 ft | 472 kts | 324° |
| 2026-05-05 02:44 | 36.80183 | -119.86423 | 39131 ft | 473 kts | 324° |
| 2026-05-05 02:44 | 36.82963 | -119.88615 | 38466 ft | 473 kts | 324° |
| 2026-05-05 02:44 | 36.85778 | -119.90841 | 37816 ft | 472 kts | 324° |
| 2026-05-05 02:44 | 36.88508 | -119.93014 | 37202 ft | 472 kts | 325° |
| 2026-05-05 02:45 | 36.91274 | -119.95216 | 36579 ft | 472 kts | 326° |
| 2026-05-05 02:45 | 36.94047 | -119.97418 | 35959 ft | 472 kts | 326° |
| 2026-05-05 02:45 | 36.96821 | -119.99622 | 35335 ft | 473 kts | 326° |
| 2026-05-05 02:45 | 36.99597 | -120.01834 | 34716 ft | 473 kts | 327° |
| 2026-05-05 02:46 | 37.02372 | -120.04049 | 34092 ft | 473 kts | 327° |
| 2026-05-05 02:46 | 37.05147 | -120.06263 | 33425 ft | 473 kts | 328° |
| 2026-05-05 02:46 | 37.07922 | -120.08477 | 32788 ft | 474 kts | 329° |
| 2026-05-05 02:46 | 37.10714 | -120.10707 | 32166 ft | 477 kts | 330° |
| 2026-05-05 02:47 | 37.13516 | -120.12950 | 31538 ft | 479 kts | 331° |
| 2026-05-05 02:47 | 37.16325 | -120.15199 | 30904 ft | 480 kts | 332° |
| 2026-05-05 02:47 | 37.19149 | -120.17462 | 30268 ft | 481 kts | 333° |
| 2026-05-05 02:47 | 37.21951 | -120.19713 | 29587 ft | 474 kts | 333° |
| 2026-05-05 02:48 | 37.24715 | -120.21933 | 28964 ft | 470 kts | 333° |
| 2026-05-05 02:48 | 37.27453 | -120.24130 | 28344 ft | 465 kts | 333° |
| 2026-05-05 02:48 | 37.30165 | -120.26295 | 27733 ft | 459 kts | 334° |
| 2026-05-05 02:48 | 37.32871 | -120.28381 | 27134 ft | 454 kts | 334° |
| 2026-05-05 02:49 | 37.35560 | -120.30436 | 26531 ft | 450 kts | 334° |
| 2026-05-05 02:49 | 37.38211 | -120.32508 | 25942 ft | 446 kts | 333° |
| 2026-05-05 02:49 | 37.40828 | -120.34575 | 25358 ft | 442 kts | 333° |
| 2026-05-05 02:49 | 37.43373 | -120.36569 | 24782 ft | 419 kts | 333° |
| 2026-05-05 02:50 | 37.45793 | -120.38452 | 24244 ft | 401 kts | 333° |
| 2026-05-05 02:50 | 37.48076 | -120.40433 | 23417 ft | 402 kts | 326° |
| 2026-05-05 02:50 | 37.50233 | -120.42637 | 22786 ft | 394 kts | 325° |
| 2026-05-05 02:50 | 37.52350 | -120.44794 | 22386 ft | 392 kts | 326° |
| 2026-05-05 02:51 | 37.54492 | -120.46918 | 21993 ft | 392 kts | 326° |
| 2026-05-05 02:51 | 37.56629 | -120.49042 | 21596 ft | 391 kts | 325° |
| 2026-05-05 02:51 | 37.58745 | -120.51178 | 21202 ft | 389 kts | 325° |
| 2026-05-05 02:51 | 37.60839 | -120.53297 | 20817 ft | 385 kts | 325° |
| 2026-05-05 02:52 | 37.62935 | -120.55392 | 20434 ft | 383 kts | 325° |
| 2026-05-05 02:52 | 37.65023 | -120.57470 | 20059 ft | 381 kts | 325° |
| 2026-05-05 02:52 | 37.67094 | -120.59546 | 19673 ft | 379 kts | 325° |
| 2026-05-05 02:52 | 37.69153 | -120.61619 | 19293 ft | 378 kts | 324° |
| 2026-05-05 02:53 | 37.71200 | -120.63676 | 18909 ft | 376 kts | 324° |
| 2026-05-05 02:53 | 37.73242 | -120.65724 | 18541 ft | 374 kts | 324° |
| 2026-05-05 02:53 | 37.75268 | -120.67762 | 18139 ft | 367 kts | 324° |
| 2026-05-05 02:53 | 37.77231 | -120.69742 | 17759 ft | 357 kts | 324° |
| 2026-05-05 02:54 | 37.79176 | -120.71699 | 17406 ft | 357 kts | 324° |
| 2026-05-05 02:54 | 37.81119 | -120.73653 | 17036 ft | 356 kts | 324° |
| 2026-05-05 02:54 | 37.83052 | -120.75603 | 16675 ft | 354 kts | 324° |
| 2026-05-05 02:54 | 37.84973 | -120.77543 | 16322 ft | 353 kts | 324° |
| 2026-05-05 02:55 | 37.86885 | -120.79475 | 15968 ft | 350 kts | 323° |
| 2026-05-05 02:55 | 37.88781 | -120.81400 | 15621 ft | 349 kts | 323° |
| 2026-05-05 02:55 | 37.90667 | -120.83321 | 15268 ft | 347 kts | 324° |
| 2026-05-05 02:55 | 37.92545 | -120.85231 | 14929 ft | 345 kts | 324° |
| 2026-05-05 02:56 | 37.94414 | -120.87129 | 14587 ft | 343 kts | 323° |
| 2026-05-05 02:56 | 37.96270 | -120.89019 | 14243 ft | 341 kts | 323° |
| 2026-05-05 02:56 | 37.98112 | -120.90897 | 13901 ft | 339 kts | 323° |
| 2026-05-05 02:56 | 37.99946 | -120.92766 | 13536 ft | 337 kts | 323° |
| 2026-05-05 02:57 | 38.01771 | -120.94627 | 13188 ft | 335 kts | 323° |
| 2026-05-05 02:57 | 38.03563 | -120.96456 | 12860 ft | 336 kts | 322° |
| 2026-05-05 02:57 | 38.05380 | -120.98312 | 12527 ft | 334 kts | 322° |
| 2026-05-05 02:57 | 38.07176 | -121.00164 | 12189 ft | 330 kts | 321° |
| 2026-05-05 02:58 | 38.08713 | -121.02240 | 11851 ft | 317 kts | 312° |
| 2026-05-05 02:58 | 38.10120 | -121.04369 | 11551 ft | 310 kts | 311° |
| 2026-05-05 02:58 | 38.11494 | -121.06413 | 11251 ft | 301 kts | 312° |
| 2026-05-05 02:58 | 38.12867 | -121.08415 | 10946 ft | 300 kts | 312° |
| 2026-05-05 02:59 | 38.14204 | -121.10379 | 10649 ft | 288 kts | 311° |
| 2026-05-05 02:59 | 38.15498 | -121.12296 | 10362 ft | 285 kts | 311° |
| 2026-05-05 02:59 | 38.16787 | -121.14201 | 10080 ft | 283 kts | 311° |
| 2026-05-05 02:59 | 38.18070 | -121.16096 | 9785 ft | 282 kts | 311° |
| 2026-05-05 03:00 | 38.19350 | -121.17986 | 9489 ft | 281 kts | 311° |
| 2026-05-05 03:00 | 38.20624 | -121.19859 | 9205 ft | 280 kts | 311° |
| 2026-05-05 03:00 | 38.21918 | -121.21696 | 8998 ft | 276 kts | 315° |
| 2026-05-05 03:00 | 38.23301 | -121.23394 | 9015 ft | 278 kts | 315° |
| 2026-05-05 03:01 | 38.24655 | -121.25151 | 9012 ft | 280 kts | 315° |
| 2026-05-05 03:01 | 38.26019 | -121.26906 | 9017 ft | 281 kts | 315° |
| 2026-05-05 03:01 | 38.27398 | -121.28639 | 9016 ft | 279 kts | 316° |
| 2026-05-05 03:01 | 38.28777 | -121.30374 | 9016 ft | 277 kts | 316° |
| 2026-05-05 03:02 | 38.30149 | -121.32116 | 9027 ft | 278 kts | 315° |
| 2026-05-05 03:02 | 38.31526 | -121.33865 | 9019 ft | 282 kts | 315° |
| 2026-05-05 03:02 | 38.32900 | -121.35608 | 9022 ft | 279 kts | 316° |
| 2026-05-05 03:02 | 38.34272 | -121.37348 | 9017 ft | 279 kts | 316° |
| 2026-05-05 03:03 | 38.35645 | -121.39092 | 9019 ft | 278 kts | 315° |
| 2026-05-05 03:03 | 38.37024 | -121.40844 | 9019 ft | 280 kts | 315° |
| 2026-05-05 03:03 | 38.38399 | -121.42591 | 8991 ft | 280 kts | 316° |
| 2026-05-05 03:03 | 38.39770 | -121.44335 | 8812 ft | 279 kts | 315° |
| 2026-05-05 03:04 | 38.41144 | -121.46084 | 8580 ft | 279 kts | 315° |
| 2026-05-05 03:04 | 38.42516 | -121.47831 | 8343 ft | 278 kts | 315° |
| 2026-05-05 03:04 | 38.43881 | -121.49569 | 8101 ft | 276 kts | 315° |
| 2026-05-05 03:04 | 38.45235 | -121.51296 | 7859 ft | 275 kts | 315° |
| 2026-05-05 03:05 | 38.46591 | -121.53025 | 7615 ft | 276 kts | 315° |
| 2026-05-05 03:05 | 38.47994 | -121.54681 | 7361 ft | 274 kts | 321° |
| 2026-05-05 03:05 | 38.49503 | -121.56167 | 7132 ft | 273 kts | 321° |
| 2026-05-05 03:05 | 38.50990 | -121.57677 | 6896 ft | 273 kts | 320° |
| 2026-05-05 03:06 | 38.52474 | -121.59186 | 6663 ft | 272 kts | 320° |
| 2026-05-05 03:06 | 38.53961 | -121.60681 | 6417 ft | 271 kts | 320° |
| 2026-05-05 03:06 | 38.55438 | -121.62163 | 6166 ft | 270 kts | 321° |
| 2026-05-05 03:06 | 38.56911 | -121.63647 | 5922 ft | 270 kts | 320° |
| 2026-05-05 03:07 | 38.58445 | -121.65023 | 5634 ft | 271 kts | 331° |
| 2026-05-05 03:07 | 38.60213 | -121.65749 | 5410 ft | 257 kts | 343° |
| 2026-05-05 03:07 | 38.61866 | -121.66346 | 5212 ft | 235 kts | 341° |
| 2026-05-05 03:07 | 38.63395 | -121.66940 | 5010 ft | 227 kts | 340° |
| 2026-05-05 03:08 | 38.64905 | -121.67533 | 4814 ft | 227 kts | 340° |
| 2026-05-05 03:08 | 38.66415 | -121.68116 | 4620 ft | 227 kts | 341° |
| 2026-05-05 03:08 | 38.67933 | -121.68697 | 4434 ft | 227 kts | 342° |
| 2026-05-05 03:08 | 38.69445 | -121.69278 | 4239 ft | 226 kts | 341° |
| 2026-05-05 03:09 | 38.70956 | -121.69839 | 4035 ft | 226 kts | 344° |
| 2026-05-05 03:09 | 38.72512 | -121.69925 | 4031 ft | 227 kts | 0° |
| 2026-05-05 03:09 | 38.74095 | -121.69862 | 4042 ft | 228 kts | 0° |
| 2026-05-05 03:09 | 38.75699 | -121.69822 | 3764 ft | 233 kts | 359° |
| 2026-05-05 03:10 | 38.77311 | -121.69793 | 3391 ft | 230 kts | 359° |
| 2026-05-05 03:10 | 38.78903 | -121.69759 | 3008 ft | 227 kts | 359° |
| 2026-05-05 03:10 | 38.80457 | -121.69723 | 2621 ft | 219 kts | 359° |
| 2026-05-05 03:10 | 38.81963 | -121.69689 | 2230 ft | 214 kts | 359° |
| 2026-05-05 03:11 | 38.83422 | -121.69656 | 2004 ft | 201 kts | 359° |
| 2026-05-05 03:11 | 38.84821 | -121.69625 | 2015 ft | 206 kts | 359° |
| 2026-05-05 03:11 | 38.86261 | -121.69595 | 2017 ft | 209 kts | 359° |
| 2026-05-05 03:11 | 38.87724 | -121.69561 | 2022 ft | 211 kts | 359° |
| 2026-05-05 03:12 | 38.89194 | -121.69528 | 2024 ft | 212 kts | 359° |
| 2026-05-05 03:12 | 38.90668 | -121.69492 | 2039 ft | 211 kts | 360° |
| 2026-05-05 03:12 | 38.92026 | -121.68830 | 1942 ft | 213 kts | 41° |
| 2026-05-05 03:12 | 38.92636 | -121.67160 | 1922 ft | 211 kts | 88° |
| 2026-05-05 03:13 | 38.92147 | -121.65467 | 1929 ft | 205 kts | 134° |
| 2026-05-05 03:13 | 38.91391 | -121.64771 | 2007 ft | 202 kts | 152° |
| 2026-05-05 03:13 | 38.90148 | -121.63908 | 2072 ft | 204 kts | 154° |
| 2026-05-05 03:13 | 38.88913 | -121.63030 | 2035 ft | 202 kts | 153° |
| 2026-05-05 03:14 | 38.87681 | -121.62151 | 2029 ft | 202 kts | 153° |
| 2026-05-05 03:14 | 38.86439 | -121.61262 | 2034 ft | 206 kts | 153° |
| 2026-05-05 03:14 | 38.85189 | -121.60362 | 2028 ft | 205 kts | 153° |
| 2026-05-05 03:14 | 38.83881 | -121.59677 | 1947 ft | 204 kts | 176° |
| 2026-05-05 03:15 | 38.82495 | -121.59835 | 2032 ft | 202 kts | 188° |
| 2026-05-05 03:15 | 38.81132 | -121.59932 | 2039 ft | 191 kts | 183° |
| 2026-05-05 03:15 | 38.79867 | -121.59953 | 1888 ft | 172 kts | 182° |
| 2026-05-05 03:15 | 38.78762 | -121.59968 | 1653 ft | 149 kts | 183° |
| 2026-05-05 03:16 | 38.77753 | -121.59984 | 1469 ft | 144 kts | 184° |
| 2026-05-05 03:16 | 38.76744 | -121.60005 | 1277 ft | 144 kts | 184° |
| 2026-05-05 03:16 | 38.75802 | -121.60018 | 1101 ft | 129 kts | 184° |
| 2026-05-05 03:16 | 38.74923 | -121.60033 | 912 ft | 123 kts | 182° |
| 2026-05-05 03:17 | 38.74069 | -121.60051 | 743 ft | 123 kts | 180° |
| 2026-05-05 03:17 | 38.73215 | -121.60066 | 570 ft | 123 kts | 179° |
| 2026-05-05 03:17 | 38.72372 | -121.60080 | 402 ft | 122 kts | 178° |
| 2026-05-05 03:17 | 38.71513 | -121.60101 | 247 ft | 125 kts | 176° |
| 2026-05-05 03:18 | 38.70647 | -121.60110 | 55 ft | 124 kts | 176° |
| 2026-05-05 03:18 | 38.69908 | -121.60122 | 32 ft | 71 kts | 182° |
| 2026-05-05 03:18 | 38.69637 | -121.60129 | 25 ft | 24 kts | 178° |
| 2026-05-05 03:18 | 38.69491 | -121.60083 | 27 ft | 21 kts | 163° |
| 2026-05-05 03:19 | 38.69297 | -121.59956 | 30 ft | 12 kts | 149° |
| 2026-05-05 03:19 | 38.69196 | -121.59885 | 30 ft | 17 kts | 162° |
| 2026-05-05 03:19 | 38.69069 | -121.59874 | 28 ft | 24 kts | 181° |
| 2026-05-05 03:20 | 38.68874 | -121.59878 | 31 ft | 28 kts | 181° |
| 2026-05-05 03:20 | 38.68691 | -121.59881 | 28 ft | 25 kts | 180° |
| 2026-05-05 03:20 | 38.68607 | -121.59872 | 28 ft | 7 kts | 148° |
| 2026-05-05 03:20 | 38.68591 | -121.59782 | 28 ft | 21 kts | 77° |
| 2026-05-05 03:21 | 38.68650 | -121.59725 | 28 ft | 4 kts | 331° |
| 2026-05-05 03:21 | 38.68651 | -121.59743 | 28 ft | 0 kts | 268° |